createdAt,value
2023-01-21T00:01:55.972Z,62.80
2023-01-21T00:04:26.668Z,63.90
2023-01-21T00:06:56.981Z,63.20
2023-01-21T00:09:27.238Z,63.10
2023-01-21T00:11:57.632Z,64.20
2023-01-21T00:14:28.413Z,65.00
2023-01-21T00:17:00.382Z,64.50
2023-01-21T00:19:32.130Z,65.00
2023-01-21T00:22:04.016Z,63.50
2023-01-21T00:24:34.809Z,62.70
2023-01-21T00:27:05.507Z,61.60
2023-01-21T00:29:35.778Z,60.60
2023-01-21T00:32:06.542Z,57.60
2023-01-21T00:34:37.524Z,56.30
2023-01-21T00:37:08.393Z,57.00
2023-01-21T00:39:45.934Z,57.40
2023-01-21T00:42:16.653Z,56.40
2023-01-21T00:44:46.969Z,56.30
2023-01-21T00:47:17.372Z,56.30
2023-01-21T00:49:47.740Z,56.20
2023-01-21T00:52:18.412Z,54.70
2023-01-21T00:54:48.843Z,55.80
2023-01-21T00:57:19.600Z,51.30
2023-01-21T00:59:50.540Z,53.80
2023-01-21T01:02:21.194Z,53.70
2023-01-21T01:04:53.383Z,53.40
2023-01-21T01:07:23.836Z,53.20
2023-01-21T01:09:55.478Z,54.00
2023-01-21T01:12:26.359Z,53.30
2023-01-21T01:14:57.449Z,52.80
2023-01-21T01:17:28.924Z,52.60
2023-01-21T01:19:59.832Z,50.50
2023-01-21T01:22:30.872Z,50.10
2023-01-21T01:25:01.146Z,50.40
2023-01-21T01:27:33.373Z,50.00
2023-01-21T01:30:04.239Z,50.50
2023-01-21T01:32:35.006Z,51.80
2023-01-21T01:35:05.380Z,52.90
2023-01-21T01:37:36.283Z,51.70
2023-01-21T01:40:07.475Z,52.40
2023-01-21T01:42:38.199Z,51.90
2023-01-21T01:45:19.684Z,52.10
2023-01-21T01:48:01.889Z,52.80
2023-01-21T01:50:37.045Z,51.10
2023-01-21T01:53:09.869Z,50.90
2023-01-21T01:55:41.108Z,50.90
2023-01-21T01:58:16.362Z,50.60
2023-01-21T02:00:47.416Z,48.70
2023-01-21T02:03:39.079Z,50.10
2023-01-21T02:06:11.332Z,47.80
2023-01-21T02:08:43.010Z,46.90
2023-01-21T02:11:17.932Z,47.80
2023-01-21T02:13:55.512Z,50.00
2023-01-21T02:16:26.357Z,48.90
2023-01-21T02:19:21.248Z,47.70
2023-01-21T02:22:09.998Z,49.00
2023-01-21T02:25:09.524Z,49.10
2023-01-21T02:27:51.799Z,48.90
2023-01-21T02:30:45.094Z,46.70
2023-01-21T02:33:31.197Z,46.50
2023-01-21T02:36:33.077Z,47.80
2023-01-21T02:39:10.015Z,47.30
2023-01-21T02:42:05.253Z,48.00
2023-01-21T02:44:42.309Z,46.80
2023-01-21T02:47:32.790Z,47.20
2023-01-21T02:50:14.665Z,47.80
2023-01-21T02:52:45.733Z,47.00
2023-01-21T02:55:19.210Z,46.30
2023-01-21T02:57:53.686Z,46.10
2023-01-21T03:00:40.384Z,46.70
2023-01-21T03:03:19.064Z,46.40
2023-01-21T03:06:04.595Z,46.10
2023-01-21T03:09:00.145Z,46.90
2023-01-21T03:11:32.056Z,46.70
2023-01-21T03:14:43.199Z,46.80
2023-01-21T03:17:46.595Z,48.20
2023-01-21T03:20:29.209Z,48.90
2023-01-21T03:23:35.376Z,48.70
2023-01-21T03:26:07.027Z,48.10
2023-01-21T03:28:41.933Z,49.90
2023-01-21T03:31:27.999Z,49.20
2023-01-21T03:34:03.788Z,50.30
2023-01-21T03:36:55.613Z,48.00
2023-01-21T03:39:32.602Z,47.50
2023-01-21T03:42:05.417Z,47.20
2023-01-21T03:44:36.808Z,47.30
2023-01-21T03:47:20.146Z,46.90
2023-01-21T03:50:09.296Z,47.00
2023-01-21T03:52:45.372Z,46.00
2023-01-21T03:55:19.389Z,49.10
2023-01-21T03:57:49.851Z,49.40
2023-01-21T04:00:20.637Z,48.40
2023-01-21T04:02:50.986Z,50.30
2023-01-21T04:05:21.438Z,46.60
2023-01-21T04:07:52.082Z,48.00
2023-01-21T04:10:22.999Z,48.50
2023-01-21T04:12:53.987Z,47.80
2023-01-21T04:15:24.605Z,46.60
2023-01-21T04:17:55.159Z,45.50
2023-01-21T04:20:25.545Z,47.60
2023-01-21T04:22:55.939Z,47.40
2023-01-21T04:25:26.234Z,47.90
2023-01-21T04:27:58.055Z,48.00
2023-01-21T04:30:28.771Z,48.30
2023-01-21T04:32:59.765Z,46.90
2023-01-21T04:35:30.550Z,47.20
2023-01-21T04:38:01.934Z,46.10
2023-01-21T04:40:33.502Z,47.30
2023-01-21T04:43:04.235Z,45.80
2023-01-21T04:45:34.569Z,46.90
2023-01-21T04:48:04.907Z,47.00
2023-01-21T04:50:35.697Z,45.80
2023-01-21T04:53:07.841Z,45.20
2023-01-21T04:55:39.355Z,45.50
2023-01-21T04:58:09.791Z,45.80
2023-01-21T05:00:40.133Z,45.80
2023-01-21T05:03:10.439Z,45.70
2023-01-21T05:05:41.113Z,47.00
2023-01-21T05:08:12.926Z,47.50
2023-01-21T05:10:43.831Z,46.10
2023-01-21T05:13:14.742Z,46.80
2023-01-21T05:15:45.655Z,47.50
2023-01-21T05:18:16.389Z,45.50
2023-01-21T05:20:46.765Z,45.70
2023-01-21T05:23:17.014Z,45.90
2023-01-21T05:25:47.268Z,45.30
2023-01-21T05:28:17.828Z,46.60
2023-01-21T05:30:49.695Z,46.00
2023-01-21T05:33:20.729Z,46.00
2023-01-21T05:35:51.513Z,46.80
2023-01-21T05:38:31.535Z,46.50
2023-01-21T05:41:06.371Z,46.00
2023-01-21T05:43:37.398Z,45.60
2023-01-21T05:46:08.287Z,45.60
2023-01-21T05:48:39.285Z,45.50
2023-01-21T05:51:11.673Z,47.00
2023-01-21T05:53:42.344Z,45.80
2023-01-21T05:56:14.908Z,45.80
2023-01-21T05:58:45.165Z,46.10
2023-01-21T06:01:15.447Z,47.00
2023-01-21T06:03:45.791Z,46.80
2023-01-21T06:06:16.177Z,46.30
2023-01-21T06:08:46.934Z,46.70
2023-01-21T06:11:17.178Z,45.40
2023-01-21T06:13:47.892Z,46.30
2023-01-21T06:16:18.570Z,46.80
2023-01-21T06:18:49.480Z,46.40
2023-01-21T06:21:19.754Z,46.50
2023-01-21T06:23:50.762Z,47.10
2023-01-21T06:26:22.332Z,46.10
2023-01-21T06:28:52.929Z,46.20
2023-01-21T06:31:23.562Z,46.00
2023-01-21T06:33:54.398Z,47.80
2023-01-21T06:36:24.796Z,47.60
2023-01-21T06:38:55.329Z,46.60
2023-01-21T06:41:26.216Z,47.80
2023-01-21T06:43:57.299Z,47.90
2023-01-21T06:46:28.273Z,47.10
2023-01-21T06:48:58.702Z,47.10
2023-01-21T06:51:29.065Z,47.10
2023-01-21T06:53:59.466Z,49.50
2023-01-21T06:56:29.704Z,49.10
2023-01-21T06:58:59.985Z,50.60
2023-01-21T07:01:32.449Z,50.30
2023-01-21T07:04:03.688Z,49.50
2023-01-21T07:06:34.413Z,49.90
2023-01-21T07:09:06.000Z,49.20
2023-01-21T07:11:37.878Z,50.10
2023-01-21T07:14:08.564Z,50.40
2023-01-21T07:16:39.519Z,51.70
2023-01-21T07:19:10.581Z,51.90
2023-01-21T07:21:43.451Z,51.80
2023-01-21T07:24:14.302Z,52.70
2023-01-21T07:26:44.943Z,52.60
2023-01-21T07:29:15.766Z,52.70
2023-01-21T07:31:46.435Z,52.80
2023-01-21T07:34:17.124Z,52.10
2023-01-21T07:36:47.525Z,52.50
2023-01-21T07:39:17.901Z,54.60
2023-01-21T07:41:48.465Z,55.60
2023-01-21T07:44:18.867Z,56.20
2023-01-21T07:46:49.249Z,56.60
2023-01-21T07:49:20.143Z,57.50
2023-01-21T07:51:52.407Z,57.40
2023-01-21T07:54:24.914Z,57.70
2023-01-21T07:56:55.939Z,58.50
2023-01-21T07:59:26.914Z,58.60
2023-01-21T08:01:58.372Z,59.50
2023-01-21T08:04:29.439Z,59.60
2023-01-21T08:07:00.531Z,60.10
2023-01-21T08:09:31.165Z,60.50
2023-01-21T08:12:01.573Z,61.10
2023-01-21T08:14:32.009Z,61.30
2023-01-21T08:17:02.996Z,61.20
2023-01-21T08:19:34.977Z,61.50
2023-01-21T08:22:05.295Z,61.90
2023-01-21T08:24:35.867Z,62.40
2023-01-21T08:27:06.233Z,63.00
2023-01-21T08:29:36.642Z,63.00
2023-01-21T08:32:07.056Z,63.40
2023-01-21T08:34:37.539Z,63.70
2023-01-21T08:37:08.292Z,63.90
2023-01-21T08:39:38.704Z,63.80
2023-01-21T08:42:09.368Z,64.00
2023-01-21T08:44:39.719Z,64.20
2023-01-21T08:47:10.031Z,64.70
2023-01-21T08:49:40.533Z,64.70
2023-01-21T08:52:11.877Z,64.80
2023-01-21T08:54:43.605Z,65.00
2023-01-21T08:57:14.611Z,65.00
2023-01-21T08:59:45.803Z,65.70
2023-01-21T09:02:17.380Z,66.30
2023-01-21T09:04:48.528Z,66.30
2023-01-21T09:07:18.837Z,65.30
2023-01-21T09:09:51.551Z,65.60
2023-01-21T09:12:21.747Z,66.20
2023-01-21T09:14:52.668Z,66.40
2023-01-21T09:17:26.067Z,66.50
2023-01-21T09:19:57.861Z,66.90
2023-01-21T09:22:30.765Z,67.20
2023-01-21T09:25:02.448Z,67.30
2023-01-21T09:27:33.310Z,67.60
2023-01-21T09:30:03.928Z,67.80
2023-01-21T09:32:35.952Z,68.00
2023-01-21T09:35:06.775Z,67.90
2023-01-21T09:37:37.269Z,67.90
2023-01-21T09:40:08.062Z,68.40
2023-01-21T09:42:38.485Z,68.50
2023-01-21T09:45:15.749Z,68.80
2023-01-21T09:47:49.265Z,69.40
2023-01-21T09:50:26.699Z,69.30
2023-01-21T09:53:14.447Z,70.10
2023-01-21T09:55:49.319Z,69.80
2023-01-21T09:58:52.432Z,70.10
2023-01-21T10:01:33.450Z,70.20
2023-01-21T10:04:33.808Z,70.50
2023-01-21T10:07:19.342Z,70.50
2023-01-21T10:09:52.827Z,70.60
2023-01-21T10:12:52.323Z,72.00
2023-01-21T10:15:49.653Z,71.20
2023-01-21T10:18:34.347Z,71.80
2023-01-21T10:21:15.876Z,72.00
2023-01-21T10:23:54.752Z,71.40
2023-01-21T10:26:26.323Z,71.80
2023-01-21T10:28:58.163Z,71.90
2023-01-21T10:31:30.724Z,72.10
2023-01-21T10:34:01.541Z,72.00
2023-01-21T10:36:41.371Z,71.70
2023-01-21T10:39:36.725Z,71.40
2023-01-21T10:42:40.568Z,72.30
2023-01-21T10:45:41.955Z,71.90
2023-01-21T10:48:28.912Z,72.30
2023-01-21T10:51:09.310Z,72.10
2023-01-21T10:54:17.148Z,71.90
2023-01-21T10:57:01.992Z,73.20
2023-01-21T10:59:37.189Z,72.30
2023-01-21T11:02:32.304Z,72.60
2023-01-21T11:05:07.536Z,72.80
2023-01-21T11:07:46.532Z,74.10
2023-01-21T11:10:32.279Z,73.40
2023-01-21T11:13:02.680Z,72.90
2023-01-21T11:15:36.121Z,73.00
2023-01-21T11:18:31.507Z,72.80
2023-01-21T11:21:29.701Z,73.50
2023-01-21T11:24:07.080Z,73.40
2023-01-21T11:26:39.039Z,72.80
2023-01-21T11:29:19.836Z,73.20
2023-01-21T11:32:13.342Z,74.40
2023-01-21T11:34:48.714Z,73.80
2023-01-21T11:37:29.278Z,73.50
2023-01-21T11:40:03.016Z,73.20
2023-01-21T11:42:34.883Z,73.90
2023-01-21T11:45:38.212Z,74.50
2023-01-21T11:48:25.567Z,73.70
2023-01-21T11:51:09.919Z,73.10
2023-01-21T11:53:41.917Z,73.80
2023-01-21T11:56:12.941Z,74.20
2023-01-21T11:58:44.841Z,74.00
2023-01-21T12:01:24.805Z,74.50
2023-01-21T12:03:56.436Z,74.10
2023-01-21T12:06:36.684Z,75.00
2023-01-21T12:09:09.964Z,74.30
2023-01-21T12:11:41.070Z,74.00
2023-01-21T12:14:39.709Z,74.40
2023-01-21T12:17:30.305Z,74.30
2023-01-21T12:20:25.193Z,73.70
2023-01-21T12:23:27.884Z,74.60
2023-01-21T12:26:15.236Z,74.70
2023-01-21T12:29:28.025Z,74.70
2023-01-21T12:32:43.819Z,74.70
2023-01-21T12:35:45.368Z,75.10
2023-01-21T12:38:28.576Z,75.40
2023-01-21T12:41:11.274Z,75.30
2023-01-21T12:43:53.549Z,75.40
2023-01-21T12:46:29.445Z,75.60
2023-01-21T12:49:20.608Z,76.10
2023-01-21T12:51:59.148Z,76.10
2023-01-21T12:54:41.880Z,76.50
2023-01-21T12:57:41.466Z,76.80
2023-01-21T13:00:31.179Z,77.10
2023-01-21T13:03:35.472Z,76.90
2023-01-21T13:06:47.206Z,76.90
2023-01-21T13:09:43.499Z,77.30
2023-01-21T13:12:24.949Z,78.90
2023-01-21T13:15:25.715Z,77.90
2023-01-21T13:18:02.756Z,78.00
2023-01-21T13:20:38.165Z,78.30
2023-01-21T13:23:40.037Z,79.00
2023-01-21T13:26:25.146Z,78.50
2023-01-21T13:29:18.659Z,78.90
2023-01-21T13:32:18.930Z,78.60
2023-01-21T13:34:49.656Z,79.10
2023-01-21T13:37:20.165Z,79.50
2023-01-21T13:40:42.808Z,79.50
2023-01-21T13:43:22.316Z,79.70
2023-01-21T13:46:11.494Z,79.70
2023-01-21T13:49:08.002Z,80.00
2023-01-21T13:52:01.297Z,80.10
2023-01-21T13:54:34.737Z,80.90
2023-01-21T13:57:45.475Z,80.70
2023-01-21T14:00:28.545Z,81.00
2023-01-21T14:03:24.370Z,80.80
2023-01-21T14:06:08.955Z,81.00
2023-01-21T14:08:56.474Z,81.20
2023-01-21T14:12:05.591Z,81.40
2023-01-21T14:14:58.114Z,81.70
2023-01-21T14:17:59.710Z,82.10
2023-01-21T14:20:49.711Z,81.70
2023-01-21T14:23:42.948Z,81.40
2023-01-21T14:26:44.058Z,81.90
2023-01-21T14:29:38.160Z,82.10
2023-01-21T14:32:17.055Z,82.10
2023-01-21T14:35:30.591Z,82.70
2023-01-21T14:38:34.947Z,82.90
2023-01-21T14:41:13.765Z,83.10
2023-01-21T14:43:45.130Z,83.10
2023-01-21T14:46:37.604Z,83.50
2023-01-21T14:49:11.359Z,83.40
2023-01-21T14:51:49.782Z,83.60
2023-01-21T14:54:30.464Z,83.40
2023-01-21T14:57:18.210Z,83.00
2023-01-21T14:59:50.252Z,83.30
2023-01-21T15:02:42.635Z,83.10
2023-01-21T15:05:39.674Z,83.60
2023-01-21T15:08:46.915Z,84.00
2023-01-21T15:11:38.132Z,83.80
2023-01-21T15:14:26.940Z,84.10
2023-01-21T15:16:57.697Z,84.20
2023-01-21T15:19:35.263Z,84.40
2023-01-21T15:22:20.430Z,84.70
2023-01-21T15:25:20.831Z,84.80
2023-01-21T15:28:40.345Z,84.10
2023-01-21T15:31:16.010Z,84.80
2023-01-21T15:33:50.698Z,84.70
2023-01-21T15:36:36.865Z,85.00
2023-01-21T15:39:26.325Z,85.30
2023-01-21T15:42:35.974Z,85.00
2023-01-21T15:45:18.608Z,85.00
2023-01-21T15:48:00.167Z,84.90
2023-01-21T15:50:58.508Z,85.40
2023-01-21T15:53:31.852Z,85.20
2023-01-21T15:56:28.117Z,85.00
2023-01-21T15:59:04.397Z,85.10
2023-01-21T16:01:40.450Z,85.20
2023-01-21T16:04:23.423Z,84.80
2023-01-21T16:07:05.776Z,85.00
2023-01-21T16:10:10.192Z,84.70
2023-01-21T16:12:58.658Z,85.50
2023-01-21T16:15:55.482Z,85.40
2023-01-21T16:18:31.850Z,85.10
2023-01-21T16:21:05.020Z,85.00
2023-01-21T16:23:40.420Z,85.30
2023-01-21T16:26:11.415Z,85.60
2023-01-21T16:28:51.838Z,85.20
2023-01-21T16:31:22.216Z,85.60
2023-01-21T16:33:53.712Z,86.00
2023-01-21T16:36:24.046Z,86.60
2023-01-21T16:38:54.807Z,86.40
2023-01-21T16:41:27.539Z,86.20
2023-01-21T16:44:07.043Z,86.30
2023-01-21T16:46:40.595Z,86.30
2023-01-21T16:49:20.005Z,86.50
2023-01-21T16:52:05.670Z,86.60
2023-01-21T16:54:36.282Z,86.50
2023-01-21T16:57:18.721Z,86.60
2023-01-21T16:59:54.717Z,86.50
2023-01-21T17:02:33.589Z,86.50
2023-01-21T17:05:09.903Z,86.60
2023-01-21T17:07:43.756Z,87.20
2023-01-21T17:10:25.487Z,86.50
2023-01-21T17:13:08.340Z,87.30
2023-01-21T17:15:44.619Z,87.00
2023-01-21T17:18:46.156Z,86.80
2023-01-21T17:21:31.290Z,87.00
2023-01-21T17:24:19.568Z,87.20
2023-01-21T17:26:54.772Z,87.10
2023-01-21T17:29:33.930Z,86.90
2023-01-21T17:32:28.640Z,87.60
2023-01-21T17:35:23.355Z,87.50
2023-01-21T17:38:03.761Z,87.70
2023-01-21T17:41:05.591Z,88.10
2023-01-21T17:43:39.185Z,87.50
2023-01-21T17:46:17.248Z,87.50
2023-01-21T17:48:53.114Z,86.90
2023-01-21T17:51:30.032Z,87.20
2023-01-21T17:54:02.332Z,87.30
2023-01-21T17:57:02.663Z,86.70
2023-01-21T17:59:45.686Z,86.90
2023-01-21T18:02:19.590Z,87.00
2023-01-21T18:04:51.489Z,87.00
2023-01-21T18:07:29.441Z,87.30
2023-01-21T18:10:06.654Z,86.90
2023-01-21T18:12:37.520Z,86.90
2023-01-21T18:15:09.566Z,86.70
2023-01-21T18:17:41.089Z,86.60
2023-01-21T18:20:24.841Z,86.90
2023-01-21T18:22:57.467Z,86.60
2023-01-21T18:25:30.486Z,86.00
2023-01-21T18:28:00.756Z,86.20
2023-01-21T18:30:32.143Z,86.00
2023-01-21T18:33:02.815Z,86.40
2023-01-21T18:35:33.945Z,86.70
2023-01-21T18:38:04.855Z,86.40
2023-01-21T18:40:36.591Z,86.30
2023-01-21T18:43:06.885Z,86.10
2023-01-21T18:45:38.943Z,86.10
2023-01-21T18:48:20.025Z,86.50
2023-01-21T18:50:51.261Z,86.20
2023-01-21T18:53:21.575Z,87.00
2023-01-21T18:55:56.050Z,85.90
2023-01-21T18:58:26.380Z,86.70
2023-01-21T19:00:57.396Z,86.30
2023-01-21T19:03:28.041Z,85.60
2023-01-21T19:05:58.825Z,85.10
2023-01-21T19:08:39.649Z,85.20
2023-01-21T19:11:10.983Z,85.10
2023-01-21T19:13:41.351Z,85.20
2023-01-21T19:16:20.683Z,85.20
2023-01-21T19:18:51.765Z,85.30
2023-01-21T19:21:22.059Z,85.50
2023-01-21T19:23:52.371Z,85.50
2023-01-21T19:26:23.237Z,85.70
2023-01-21T19:28:54.793Z,86.10
2023-01-21T19:31:26.839Z,86.10
2023-01-21T19:33:57.610Z,85.80
2023-01-21T19:36:28.398Z,86.70
2023-01-21T19:39:03.499Z,86.80
2023-01-21T19:41:34.314Z,86.60
2023-01-21T19:44:04.945Z,86.40
2023-01-21T19:46:36.931Z,86.50
2023-01-21T19:49:15.765Z,86.40
2023-01-21T19:51:47.025Z,86.10
2023-01-21T19:54:17.375Z,85.30
2023-01-21T19:56:47.807Z,85.30
2023-01-21T19:59:20.012Z,85.60
2023-01-21T20:01:52.925Z,85.00
2023-01-21T20:04:23.186Z,84.70
2023-01-21T20:06:53.883Z,84.80
2023-01-21T20:09:24.176Z,84.80
2023-01-21T20:11:54.916Z,84.60
2023-01-21T20:14:29.241Z,83.90
2023-01-21T20:16:59.945Z,84.10
2023-01-21T20:19:30.157Z,85.00
2023-01-21T20:22:02.623Z,85.20
2023-01-21T20:24:36.030Z,84.80
2023-01-21T20:27:09.638Z,84.40
2023-01-21T20:29:49.601Z,84.70
2023-01-21T20:32:27.046Z,83.70
2023-01-21T20:34:58.914Z,84.40
2023-01-21T20:37:30.853Z,84.20
2023-01-21T20:40:01.760Z,84.30
2023-01-21T20:42:32.538Z,83.60
2023-01-21T20:45:02.817Z,83.70
2023-01-21T20:47:38.653Z,83.00
2023-01-21T20:50:37.402Z,82.60
2023-01-21T20:53:08.378Z,82.30
2023-01-21T20:55:40.217Z,82.00
2023-01-21T20:58:13.995Z,82.40
2023-01-21T21:00:45.782Z,82.10
2023-01-21T21:03:19.635Z,82.00
2023-01-21T21:05:51.235Z,81.30
2023-01-21T21:08:35.159Z,81.40
2023-01-21T21:11:05.533Z,81.70
2023-01-21T21:13:35.804Z,81.50
2023-01-21T21:16:15.995Z,81.70
2023-01-21T21:18:46.527Z,81.20
2023-01-21T21:21:18.500Z,81.50
2023-01-21T21:23:49.470Z,80.70
2023-01-21T21:26:23.433Z,80.50
2023-01-21T21:29:00.579Z,80.30
2023-01-21T21:31:34.945Z,79.70
2023-01-21T21:34:05.851Z,79.20
2023-01-21T21:36:37.594Z,79.60
2023-01-21T21:39:09.563Z,80.00
2023-01-21T21:41:59.332Z,79.80
2023-01-21T21:44:31.529Z,80.10
2023-01-21T21:47:21.259Z,78.90
2023-01-21T21:49:52.142Z,79.30
2023-01-21T21:52:22.831Z,80.10
2023-01-21T21:54:53.914Z,79.60
2023-01-21T21:57:25.544Z,78.80
2023-01-21T21:59:56.202Z,79.40
2023-01-21T22:02:26.919Z,78.80
2023-01-21T22:04:59.214Z,77.50
2023-01-21T22:07:30.942Z,76.30
2023-01-21T22:10:01.801Z,75.90
2023-01-21T22:12:32.079Z,75.50
2023-01-21T22:15:02.821Z,74.90
2023-01-21T22:17:33.202Z,74.70
2023-01-21T22:20:03.594Z,74.80
2023-01-21T22:22:33.885Z,75.80
2023-01-21T22:25:04.301Z,74.80
2023-01-21T22:27:35.061Z,74.70
2023-01-21T22:30:05.624Z,74.90
2023-01-21T22:32:36.282Z,75.30
2023-01-21T22:35:06.725Z,74.10
2023-01-21T22:37:37.373Z,73.80
2023-01-21T22:40:08.360Z,74.80
2023-01-21T22:42:38.853Z,74.90
2023-01-21T22:45:10.860Z,74.20
2023-01-21T22:47:41.458Z,74.70
2023-01-21T22:50:12.941Z,73.20
2023-01-21T22:52:43.673Z,72.20
2023-01-21T22:55:14.353Z,72.40
2023-01-21T22:57:45.092Z,71.30
2023-01-21T23:00:34.746Z,69.70
2023-01-21T23:03:05.377Z,68.90
2023-01-21T23:05:39.707Z,70.10
2023-01-21T23:08:10.161Z,69.80
2023-01-21T23:10:43.274Z,69.10
2023-01-21T23:13:18.991Z,69.70
2023-01-21T23:15:51.132Z,69.60
2023-01-21T23:18:22.033Z,70.60
2023-01-21T23:20:52.828Z,70.80
2023-01-21T23:23:25.906Z,69.70
2023-01-21T23:25:56.960Z,70.50
2023-01-21T23:28:28.549Z,69.80
2023-01-21T23:31:00.539Z,69.30
2023-01-21T23:33:31.224Z,69.40
2023-01-21T23:36:03.333Z,68.40
2023-01-21T23:38:34.329Z,68.80
2023-01-21T23:41:10.244Z,69.50
2023-01-21T23:43:41.387Z,68.30
2023-01-21T23:46:21.574Z,68.50
2023-01-21T23:48:52.719Z,69.30
2023-01-21T23:51:32.891Z,68.00
2023-01-21T23:54:04.687Z,68.90
2023-01-21T23:56:38.343Z,69.30
2023-01-21T23:59:09.360Z,70.30
